Time;durP1;ratioP1;P1;durP2;ratioP2;P2;SDS_P1;SDS_P2;PMS_P1;PMS_P2;Temp;Humidity;BMP_temperature;BMP_pressure;BME280_temperature;BME280_humidity;BME280_pressure;Samples;Min_cycle;Max_cycle;Signal;HPM_P1;HPM_P2
2024/03/05 00:01:30;;;;;;;2.65;2.42;;;;;;;0.38;81.90;101483.31;5087190;28;20146;-69
2024/03/05 00:03:55;;;;;;;0.65;0.65;;;;;;;0.31;82.18;101481.22;5087225;28;20487;-69
2024/03/05 00:06:21;;;;;;;2.75;1.52;;;;;;;0.32;82.10;101488.13;5087121;28;20024;-68
2024/03/05 00:08:46;;;;;;;3.28;2.00;;;;;;;0.34;82.19;101494.16;5105189;28;20032;-68
2024/03/05 00:11:11;;;;;;;16.40;2.20;;;;;;;0.28;82.03;101481.06;5105040;28;20020;-68
2024/03/05 00:13:37;;;;;;;2.13;1.52;;;;;;;0.38;82.02;101496.09;5086876;28;20114;-70
2024/03/05 00:16:04;;;;;;;5.65;3.00;;;;;;;0.33;82.08;101485.63;5105220;28;20023;-70
2024/03/05 00:18:29;;;;;;;2.72;2.53;;;;;;;0.28;82.28;101484.50;5086889;28;20032;-70
2024/03/05 00:20:57;;;;;;;1.90;1.80;;;;;;;0.28;82.34;101483.63;5104868;28;20019;-69
2024/03/05 00:23:22;;;;;;;1.85;1.73;;;;;;;0.28;82.47;101488.72;5107352;28;20020;-70
2024/03/05 00:25:48;;;;;;;5.32;4.03;;;;;;;0.33;82.56;101492.41;5109379;28;20038;-70
2024/03/05 00:28:13;;;;;;;1.13;1.02;;;;;;;0.23;82.65;101485.94;5109327;28;20035;-70
2024/03/05 00:30:38;;;;;;;1.70;1.60;;;;;;;0.30;82.81;101484.59;5109262;28;20111;-69
2024/03/05 00:33:06;;;;;;;2.90;2.63;;;;;;;0.37;82.77;101504.53;5109267;28;20486;-69
2024/03/05 00:35:31;;;;;;;2.47;2.35;;;;;;;0.33;82.95;101498.41;5090931;28;20024;-70
2024/03/05 00:37:57;;;;;;;1.40;1.30;;;;;;;0.32;82.89;101498.34;5108908;28;20034;-69
2024/03/05 00:40:22;;;;;;;1.95;1.85;;;;;;;0.34;82.90;101499.25;5107883;28;20057;-70
2024/03/05 00:42:48;;;;;;;6.88;2.85;;;;;;;0.30;82.88;101493.16;5108237;28;20048;-69
2024/03/05 00:45:16;;;;;;;0.98;0.98;;;;;;;0.30;83.04;101503.38;5108839;28;20126;-69
2024/03/05 00:47:43;;;;;;;0.63;0.63;;;;;;;0.30;83.07;101493.16;5109171;28;20087;-69
2024/03/05 00:50:12;;;;;;;2.63;2.28;;;;;;;0.32;83.15;101490.66;5108780;28;20028;-70
2024/03/05 00:52:38;;;;;;;3.13;2.60;;;;;;;0.32;83.14;101499.19;5108929;28;20020;-69
2024/03/05 00:55:07;;;;;;;6.07;3.22;;;;;;;0.32;83.23;101488.13;5108848;28;20020;-69
2024/03/05 00:57:36;;;;;;;2.95;2.28;;;;;;;0.27;83.30;101505.75;5108893;28;20051;-68
2024/03/05 01:00:02;;;;;;;2.90;1.55;;;;;;;0.32;83.27;101500.88;5108866;28;20027;-70
2024/03/05 01:02:27;;;;;;;5.72;1.42;;;;;;;0.30;83.30;101494.81;5108586;28;20050;-70
2024/03/05 01:04:53;;;;;;;3.33;2.80;;;;;;;0.35;83.31;101491.69;5108320;28;20471;-69
2024/03/05 01:07:19;;;;;;;3.55;1.85;;;;;;;0.32;83.24;101495.78;5090237;28;20045;-69
2024/03/05 01:09:45;;;;;;;2.42;1.88;;;;;;;0.31;83.25;101488.88;5108744;28;20028;-69
2024/03/05 01:12:10;;;;;;;1.00;0.95;;;;;;;0.30;83.27;101505.03;5108385;28;20028;-69
2024/03/05 01:14:36;;;;;;;5.65;2.25;;;;;;;0.29;83.36;101505.84;5107054;28;20024;-70
2024/03/05 01:17:04;;;;;;;10.55;3.80;;;;;;;0.33;83.04;101497.53;5108279;28;20020;-70
2024/03/05 01:19:30;;;;;;;7.20;3.85;;;;;;;0.15;83.42;101472.78;5089989;28;20028;-70
2024/03/05 01:21:58;;;;;;;1.45;1.35;;;;;;;0.31;83.19;101499.09;5108183;28;20032;-70
2024/03/05 01:24:25;;;;;;;2.95;1.50;;;;;;;0.22;83.41;101490.16;5089909;28;20035;-68
2024/03/05 01:26:51;;;;;;;6.53;3.15;;;;;;;0.27;83.42;101492.09;5107899;28;20027;-70
2024/03/05 01:29:17;;;;;;;2.08;1.88;;;;;;;0.27;83.44;101498.09;5108009;28;20383;-69
2024/03/05 01:31:44;;;;;;;1.90;1.02;;;;;;;0.20;83.60;101491.78;5107994;28;20126;-68
2024/03/05 01:34:10;;;;;;;5.40;3.65;;;;;;;0.21;83.82;101503.75;5107434;28;20048;-68
2024/03/05 01:36:35;;;;;;;4.03;1.48;;;;;;;0.22;83.35;101490.16;5107717;28;20031;-69
2024/03/05 01:39:00;;;;;;;2.35;2.15;;;;;;;0.24;83.46;101490.25;5107521;28;20376;-69
2024/03/05 01:41:26;;;;;;;2.00;1.90;;;;;;;0.21;83.59;101493.53;5107783;28;20039;-69
2024/03/05 01:43:52;;;;;;;2.08;1.90;;;;;;;0.23;83.52;101483.41;5107811;28;20055;-69
2024/03/05 01:46:18;;;;;;;2.58;2.38;;;;;;;0.20;83.69;101491.78;5107770;28;20484;-69
2024/03/05 01:48:44;;;;;;;1.27;1.17;;;;;;;0.20;83.68;101485.78;5107723;28;20055;-69
2024/03/05 01:51:14;;;;;;;1.13;1.10;;;;;;;0.07;83.56;101469.84;5107497;28;20047;-69
2024/03/05 01:53:42;;;;;;;1.90;1.30;;;;;;;0.14;83.59;101465.94;5107813;28;20028;-69
2024/03/05 01:56:08;;;;;;;2.92;2.25;;;;;;;0.11;83.67;101470.88;5107483;28;20016;-69
2024/03/05 01:58:35;;;;;;;2.35;1.88;;;;;;;0.09;83.73;101483.56;5107621;28;20083;-69
2024/03/05 02:01:06;;;;;;;3.28;3.03;;;;;;;0.14;83.69;101476.16;5104937;28;20546;-69
2024/03/05 02:03:33;;;;;;;1.48;1.40;;;;;;;0.15;83.46;101477.88;5105348;28;20110;-69
2024/03/05 02:06:00;;;;;;;5.13;2.05;;;;;;;0.17;83.33;101467.75;5107574;28;20091;-69
2024/03/05 02:08:27;;;;;;;2.90;1.58;;;;;;;0.13;83.56;101478.63;5107446;28;20026;-69
2024/03/05 02:10:52;;;;;;;3.15;1.55;;;;;;;0.14;83.46;101483.81;5107018;28;20020;-69
2024/03/05 02:13:17;;;;;;;1.83;1.73;;;;;;;0.06;83.33;101473.19;5107179;28;20103;-69
2024/03/05 02:15:43;;;;;;;3.65;1.70;;;;;;;0.09;83.36;101480.13;5088821;28;20024;-70
2024/03/05 02:18:09;;;;;;;2.70;2.60;;;;;;;0.06;83.22;101479.97;5107155;28;20024;-70
2024/03/05 02:20:34;;;;;;;0.98;0.98;;;;;;;0.09;83.03;101485.25;5106942;28;20375;-69
2024/03/05 02:23:02;;;;;;;3.60;3.30;;;;;;;0.06;83.22;101470.66;5107150;28;20038;-68
2024/03/05 02:25:27;;;;;;;4.03;2.65;;;;;;;0.10;83.06;101480.22;5106964;28;20107;-69
2024/03/05 02:27:53;;;;;;;2.60;2.22;;;;;;;0.06;83.08;101473.19;5106713;28;20028;-70
2024/03/05 02:30:20;;;;;;;2.67;2.42;;;;;;;0.05;83.01;101475.66;5105416;28;20040;-70
2024/03/05 02:32:46;;;;;;;13.63;4.45;;;;;;;0.05;82.99;101471.41;5105345;28;20134;-69
2024/03/05 02:35:11;;;;;;;1.35;1.25;;;;;;;0.03;83.05;101480.69;5106346;28;20024;-69
2024/03/05 02:37:40;;;;;;;1.85;1.65;;;;;;;-0.05;83.13;101475.16;5106880;28;20027;-70
2024/03/05 02:40:08;;;;;;;3.78;2.55;;;;;;;-0.02;83.22;101482.97;5106754;28;20012;-69
2024/03/05 02:42:37;;;;;;;2.35;1.33;;;;;;;0.03;82.97;101484.91;5106205;28;20080;-69
2024/03/05 02:45:07;;;;;;;8.25;4.05;;;;;;;-0.02;82.86;101475.31;5105241;28;20182;-69
2024/03/05 02:47:41;;;;;;;12.35;6.22;;;;;;;0.01;82.75;101489.06;5105569;28;20024;-69
2024/03/05 02:50:08;;;;;;;3.80;2.92;;;;;;;-0.06;82.70;101498.94;5106630;28;20027;-70
2024/03/05 02:52:34;;;;;;;4.15;1.88;;;;;;;-0.01;82.43;101484.75;5106354;28;20024;-69
2024/03/05 02:55:00;;;;;;;6.63;2.63;;;;;;;-0.08;82.61;101489.47;5106435;28;20050;-69
2024/03/05 02:57:26;;;;;;;2.45;2.25;;;;;;;-0.12;82.64;101488.41;5106352;28;20020;-69
2024/03/05 02:59:51;;;;;;;5.45;4.10;;;;;;;-0.13;82.55;101479.00;5106245;28;20023;-69
2024/03/05 03:02:20;;;;;;;1.42;1.33;;;;;;;-0.16;82.72;101489.06;5087520;28;20020;-69
2024/03/05 03:04:45;;;;;;;2.22;2.03;;;;;;;-0.17;82.49;101489.84;5106525;28;20020;-68
2024/03/05 03:07:12;;;;;;;2.85;2.13;;;;;;;-0.31;82.50;101461.91;5106114;28;20464;-69
2024/03/05 03:09:37;;;;;;;6.70;2.13;;;;;;;-0.20;82.35;101482.91;5106150;28;20024;-68
2024/03/05 03:12:03;;;;;;;8.23;2.53;;;;;;;-0.23;82.31;101490.41;5105768;28;20027;-69
2024/03/05 03:14:28;;;;;;;3.70;2.42;;;;;;;-0.21;82.50;101487.94;5105956;28;20042;-70
2024/03/05 03:16:54;;;;;;;3.50;3.30;;;;;;;-0.23;82.33;101497.16;5105872;28;20020;-69
2024/03/05 03:19:21;;;;;;;2.08;1.75;;;;;;;-0.29;82.31;101490.94;5106029;28;20096;-69
2024/03/05 03:21:47;;;;;;;5.80;2.28;;;;;;;-0.33;82.44;101483.91;5105785;28;20024;-69
2024/03/05 03:24:12;;;;;;;3.10;1.73;;;;;;;-0.41;82.27;101468.19;5105746;28;20020;-69
2024/03/05 03:26:38;;;;;;;5.43;3.17;;;;;;;-0.28;82.10;101491.81;5105762;28;20027;-70
2024/03/05 03:29:05;;;;;;;7.88;4.15;;;;;;;-0.31;82.06;101495.09;5105211;28;20032;-70
2024/03/05 03:31:30;;;;;;;1.88;1.75;;;;;;;-0.35;82.21;101480.41;5105590;28;20024;-69
2024/03/05 03:33:56;;;;;;;0.93;0.93;;;;;;;-0.39;82.35;101478.50;5105850;28;20023;-70
2024/03/05 03:36:25;;;;;;;2.95;1.60;;;;;;;-0.26;81.90;101482.59;5104266;28;20020;-69
2024/03/05 03:38:51;;;;;;;6.32;2.88;;;;;;;-0.36;81.64;101499.06;5105742;28;20428;-70
2024/03/05 03:41:16;;;;;;;1.10;0.95;;;;;;;-0.39;81.98;101478.50;5105471;28;20024;-69
2024/03/05 03:43:42;;;;;;;3.70;2.50;;;;;;;-0.41;81.79;101486.06;5105413;28;20050;-69
2024/03/05 03:46:08;;;;;;;1.27;1.13;;;;;;;-0.38;82.08;101485.34;5105528;28;20027;-69
2024/03/05 03:48:36;;;;;;;3.03;2.20;;;;;;;-0.44;81.96;101482.47;5105446;28;20020;-70
2024/03/05 03:51:01;;;;;;;4.72;2.70;;;;;;;-0.36;81.86;101503.28;5105388;28;20024;-69
2024/03/05 03:53:27;;;;;;;1.65;1.52;;;;;;;-0.46;82.13;101489.16;5105551;28;20028;-69
2024/03/05 03:55:53;;;;;;;2.08;1.85;;;;;;;-0.52;81.94;101477.81;5086922;28;20367;-69
2024/03/05 03:58:18;;;;;;;5.95;2.88;;;;;;;-0.39;82.01;101509.09;5104832;28;20024;-71
2024/03/05 04:00:44;;;;;;;4.32;2.85;;;;;;;-0.46;82.22;101501.94;5105474;28;20472;-70
2024/03/05 04:03:10;;;;;;;2.60;2.25;;;;;;;-0.49;82.39;101484.75;5105279;28;20455;-70
2024/03/05 04:05:35;;;;;;;2.90;2.35;;;;;;;-0.43;82.16;101502.09;5105427;28;20086;-69
2024/03/05 04:08:01;;;;;;;1.70;1.60;;;;;;;-0.46;81.93;101499.38;5105216;28;20016;-68
2024/03/05 04:10:27;;;;;;;3.58;2.90;;;;;;;-0.45;81.88;101488.38;5103815;28;20057;-69
2024/03/05 04:12:52;;;;;;;2.13;1.88;;;;;;;-0.34;81.63;101500.03;5105150;28;20027;-69
2024/03/05 04:15:18;;;;;;;4.05;2.92;;;;;;;-0.47;82.03;101484.84;5105110;28;20039;-70
2024/03/05 04:17:45;;;;;;;2.55;2.35;;;;;;;-0.39;82.11;101479.38;5105355;28;20027;-70
2024/03/05 04:20:11;;;;;;;1.98;1.88;;;;;;;-0.46;81.90;101492.59;5105242;28;20088;-70
2024/03/05 04:22:39;;;;;;;1.60;1.42;;;;;;;-0.42;81.87;101494.53;5105092;28;20024;-69
2024/03/05 04:25:05;;;;;;;1.48;1.02;;;;;;;-0.40;81.89;101498.00;5086929;28;20027;-69
2024/03/05 04:27:31;;;;;;;2.80;1.77;;;;;;;-0.41;81.88;101492.81;5105035;28;20020;-69
2024/03/05 04:29:57;;;;;;;2.35;2.10;;;;;;;-0.48;81.86;101493.31;5105063;28;20016;-69
2024/03/05 04:32:26;;;;;;;3.72;3.05;;;;;;;-0.38;81.82;101500.66;5103727;28;20020;-70
2024/03/05 04:35:00;;;;;;;5.03;3.65;;;;;;;-0.35;81.73;101503.38;5105026;28;20020;-69
2024/03/05 04:37:30;;;;;;;2.95;2.67;;;;;;;-0.41;81.76;101500.47;5087021;28;20031;-69
2024/03/05 04:39:57;;;;;;;1.55;1.42;;;;;;;-0.38;81.74;101500.66;5103722;28;20049;-68
2024/03/05 04:42:22;;;;;;;3.65;1.65;;;;;;;-0.39;81.67;101496.34;5104716;28;20048;-68
2024/03/05 04:44:48;;;;;;;3.90;2.40;;;;;;;-0.42;81.87;101516.59;5104850;28;20043;-69
2024/03/05 04:47:13;;;;;;;2.47;2.15;;;;;;;-0.55;81.87;101479.31;5105111;28;20028;-69
2024/03/05 04:49:38;;;;;;;0.80;0.80;;;;;;;-0.43;81.83;101485.09;5104815;28;20028;-70
2024/03/05 04:52:04;;;;;;;5.80;3.72;;;;;;;-0.40;81.85;101497.16;5104884;28;20024;-70
2024/03/05 04:54:29;;;;;;;14.02;2.83;;;;;;;-0.40;81.91;101486.94;5104701;28;20032;-70
2024/03/05 04:56:56;;;;;;;2.70;2.05;;;;;;;-0.39;81.68;101499.78;5086452;28;20096;-70
2024/03/05 04:59:21;;;;;;;1.73;1.63;;;;;;;-0.35;81.62;101508.47;5105016;28;20160;-70
2024/03/05 05:01:47;;;;;;;0.98;0.98;;;;;;;-0.39;81.78;101514.22;5104702;28;20357;-70
2024/03/05 05:04:12;;;;;;;2.05;1.95;;;;;;;-0.39;81.72;101512.56;5104733;28;20032;-69
2024/03/05 05:06:38;;;;;;;18.40;1.67;;;;;;;-0.44;81.79;101502.88;5104837;28;20025;-69
2024/03/05 05:09:05;;;;;;;4.45;2.38;;;;;;;-0.44;81.72;101520.72;5086358;28;20024;-68
2024/03/05 05:11:31;;;;;;;1.48;1.33;;;;;;;-0.39;81.68;101522.75;5107746;28;20042;-69
2024/03/05 05:13:56;;;;;;;6.85;2.95;;;;;;;-0.39;81.72;101527.84;5108473;28;20107;-70
2024/03/05 05:16:22;;;;;;;1.42;1.33;;;;;;;-0.34;81.71;101514.47;5108096;28;20032;-69
2024/03/05 05:18:47;;;;;;;2.00;1.88;;;;;;;-0.44;81.61;101513.97;5107081;28;20087;-68
2024/03/05 05:21:12;;;;;;;1.75;1.02;;;;;;;-0.36;81.54;101523.69;5088877;28;20023;-68
2024/03/05 05:23:39;;;;;;;1.25;1.15;;;;;;;-0.34;81.45;101533.22;5089908;28;20048;-69
2024/03/05 05:26:05;;;;;;;5.38;2.03;;;;;;;-0.40;81.56;101527.78;5108130;28;20020;-68
2024/03/05 05:28:30;;;;;;;1.02;1.02;;;;;;;-0.41;81.71;101548.97;5107748;28;20115;-68
2024/03/05 05:30:55;;;;;;;1.13;1.05;;;;;;;-0.45;81.86;101534.28;5089986;28;20028;-68
2024/03/05 05:33:21;;;;;;;2.67;1.08;;;;;;;-0.42;81.65;101543.00;5108212;28;20024;-69
2024/03/05 05:35:46;;;;;;;1.00;0.90;;;;;;;-0.45;81.90;101547.06;5089730;28;20024;-68
2024/03/05 05:38:12;;;;;;;3.22;2.30;;;;;;;-0.48;81.90;101547.78;5106932;28;20471;-69
2024/03/05 05:40:37;;;;;;;5.25;3.05;;;;;;;-0.48;81.99;101545.22;5090018;28;20023;-68
2024/03/05 05:43:04;;;;;;;2.33;2.13;;;;;;;-0.48;81.97;101559.63;5107618;28;20111;-68
2024/03/05 05:45:29;;;;;;;3.00;2.75;;;;;;;-0.37;81.65;101563.66;5089560;28;20028;-69
2024/03/05 05:47:56;;;;;;;1.85;1.50;;;;;;;-0.42;81.49;101549.78;5106474;28;20036;-68
2024/03/05 05:50:23;;;;;;;1.77;1.70;;;;;;;-0.45;81.41;101545.38;5107652;28;20036;-68
2024/03/05 05:52:52;;;;;;;3.22;2.92;;;;;;;-0.45;81.46;101564.91;5107845;28;20433;-68
2024/03/05 05:55:23;;;;;;;0.90;0.90;;;;;;;-0.46;81.15;101574.22;5107632;28;20034;-69
2024/03/05 05:57:50;;;;;;;3.90;1.73;;;;;;;-0.32;80.22;101569.03;5107626;28;20507;-68
2024/03/05 06:00:24;;;;;;;2.85;2.03;;;;;;;-0.35;80.31;101567.16;5107019;28;20020;-69
2024/03/05 06:02:54;;;;;;;2.63;1.85;;;;;;;-0.41;80.36;101564.28;5106323;28;20031;-69
2024/03/05 06:05:24;;;;;;;2.70;2.15;;;;;;;-0.35;80.41;101566.31;5107385;28;20032;-69
2024/03/05 06:07:50;;;;;;;1.02;1.00;;;;;;;-0.35;80.15;101568.84;5107569;28;20032;-68
2024/03/05 06:10:17;;;;;;;1.77;1.67;;;;;;;-0.29;79.88;101585.38;5105831;28;20028;-69
2024/03/05 06:12:42;;;;;;;3.10;2.08;;;;;;;-0.17;78.92;101584.28;5107188;28;20055;-68
2024/03/05 06:15:08;;;;;;;1.85;0.85;;;;;;;-0.29;79.28;101580.25;5107403;28;20023;-69
2024/03/05 06:17:33;;;;;;;2.15;2.05;;;;;;;-0.24;79.09;101578.00;5107295;28;20024;-68
2024/03/05 06:19:59;;;;;;;1.83;1.73;;;;;;;-0.23;79.11;101578.84;5088849;28;20027;-69
2024/03/05 06:22:24;;;;;;;15.55;2.35;;;;;;;-0.06;77.98;101588.31;5106839;28;20022;-68
2024/03/05 06:24:49;;;;;;;2.92;2.72;;;;;;;-0.19;78.66;101598.66;5107101;28;20457;-68
2024/03/05 06:27:16;;;;;;;1.15;1.05;;;;;;;-0.15;78.58;101591.25;5106930;28;20088;-67
2024/03/05 06:29:42;;;;;;;2.45;2.25;;;;;;;-0.07;78.08;101594.22;5107002;28;20024;-67
2024/03/05 06:32:10;;;;;;;4.32;1.35;;;;;;;-0.15;78.57;101592.91;5106768;28;20387;-66
2024/03/05 06:34:35;;;;;;;2.38;2.10;;;;;;;-0.18;78.44;101583.44;5106980;28;20027;-68
2024/03/05 06:37:01;;;;;;;1.83;1.73;;;;;;;-0.08;77.59;101582.22;5106707;28;20024;-68
2024/03/05 06:39:29;;;;;;;1.95;1.85;;;;;;;-0.11;77.32;101594.81;5106905;28;20068;-68
2024/03/05 06:41:56;;;;;;;3.40;2.10;;;;;;;0.09;76.08;101607.81;5088403;28;20111;-70
2024/03/05 06:44:25;;;;;;;2.42;2.25;;;;;;;-0.10;76.65;101588.94;5106374;28;20495;-68
2024/03/05 06:46:51;;;;;;;0.80;0.80;;;;;;;-0.14;76.96;101598.09;5106540;28;20035;-68
2024/03/05 06:49:26;;;;;;;3.35;1.70;;;;;;;-0.07;77.37;101607.00;5106796;28;20016;-69
2024/03/05 06:51:53;;;;;;;6.57;3.75;;;;;;;0.22;76.91;101605.09;5088244;28;20020;-68
2024/03/05 06:57:08;;;;;;;4.75;2.63;;;;;;;0.39;76.67;101599.13;5106405;28;20031;-67
2024/03/05 06:59:34;;;;;;;1.60;1.50;;;;;;;0.43;76.75;101599.38;5106590;28;20024;-68
2024/03/05 07:01:59;;;;;;;2.88;2.58;;;;;;;0.53;76.03;101605.00;5104938;28;20030;-69
2024/03/05 07:04:25;;;;;;;1.48;1.33;;;;;;;0.61;76.57;101602.03;5106374;28;20028;-67
2024/03/05 07:06:50;;;;;;;1.58;1.48;;;;;;;0.87;75.98;101609.28;5088032;28;20051;-69
2024/03/05 07:09:15;;;;;;;2.28;1.38;;;;;;;1.12;75.32;101613.06;5088095;28;20049;-69
2024/03/05 07:11:41;;;;;;;2.65;1.88;;;;;;;1.15;73.21;101612.38;5087804;28;20020;-68
2024/03/05 07:14:07;;;;;;;2.45;1.48;;;;;;;1.12;73.25;101602.84;5106324;28;20020;-66
2024/03/05 07:16:33;;;;;;;3.38;1.95;;;;;;;1.21;73.03;101612.66;5104838;28;20023;-69
2024/03/05 07:19:01;;;;;;;1.33;1.23;;;;;;;1.44;73.08;101610.34;5106346;28;20027;-68
2024/03/05 07:21:28;;;;;;;2.42;1.27;;;;;;;1.72;72.97;101611.69;5106209;28;20078;-68
2024/03/05 07:23:54;;;;;;;1.80;1.70;;;;;;;1.93;71.37;101601.56;5105986;28;20054;-68
2024/03/05 07:26:20;;;;;;;1.33;1.05;;;;;;;2.15;69.74;101602.56;5105894;28;20020;-68
2024/03/05 07:28:45;;;;;;;4.40;2.47;;;;;;;2.16;69.50;101598.28;5106245;28;20020;-68
2024/03/05 07:31:11;;;;;;;7.25;3.03;;;;;;;2.34;68.40;101606.84;5105816;28;20090;-67
2024/03/05 07:33:37;;;;;;;1.63;1.52;;;;;;;2.43;67.58;101613.19;5105372;28;20081;-68
2024/03/05 07:36:04;;;;;;;4.47;1.83;;;;;;;2.51;67.02;101618.66;5105755;28;20027;-68
2024/03/05 07:38:29;;;;;;;1.88;1.63;;;;;;;2.59;65.80;101617.28;5105820;28;20085;-68
2024/03/05 07:40:55;;;;;;;2.35;1.73;;;;;;;2.47;66.38;101613.41;5105808;28;20024;-68
2024/03/05 07:43:21;;;;;;;1.30;0.95;;;;;;;2.25;65.35;101610.66;5091588;28;20135;-67
2024/03/05 07:45:46;;;;;;;1.08;1.05;;;;;;;2.13;65.20;101603.28;5105718;28;20026;-70
2024/03/05 07:48:11;;;;;;;3.47;3.13;;;;;;;1.91;65.56;101618.56;5105757;28;20028;-68
2024/03/05 07:50:38;;;;;;;2.58;1.55;;;;;;;1.98;65.29;101620.59;5104055;28;20035;-69
2024/03/05 07:53:05;;;;;;;2.63;2.42;;;;;;;1.92;65.68;101633.09;5105348;28;20048;-69
2024/03/05 07:55:30;;;;;;;6.38;1.98;;;;;;;1.93;66.05;101632.28;5105720;28;20030;-68
2024/03/05 07:57:58;;;;;;;2.20;2.00;;;;;;;2.18;64.91;101653.94;5105462;28;20023;-69
2024/03/05 08:00:24;;;;;;;3.03;2.40;;;;;;;2.26;65.42;101632.91;5105889;28;20024;-70
2024/03/05 08:02:54;;;;;;;1.08;1.08;;;;;;;2.47;64.99;101630.47;5105803;28;20031;-68
2024/03/05 08:05:23;;;;;;;1.15;1.02;;;;;;;2.56;64.38;101629.97;5105591;28;20024;-68
2024/03/05 08:07:53;;;;;;;1.20;1.17;;;;;;;2.60;64.02;101640.44;5105483;28;20016;-67
2024/03/05 08:10:19;;;;;;;1.25;1.15;;;;;;;2.71;63.27;101651.19;5105610;28;20020;-70
2024/03/05 08:12:47;;;;;;;1.98;1.27;;;;;;;2.73;64.32;101647.00;5105311;28;20032;-69
2024/03/05 08:15:17;;;;;;;2.83;2.58;;;;;;;2.87;62.99;101639.03;5104186;28;20020;-69
2024/03/05 08:17:47;;;;;;;2.47;2.17;;;;;;;3.00;61.13;101654.94;5105459;28;20072;-70
2024/03/05 08:20:21;;;;;;;0.93;0.93;;;;;;;2.63;62.08;101634.59;5105462;28;20019;-69
2024/03/05 08:22:47;;;;;;;1.50;1.40;;;;;;;2.57;62.13;101644.56;5105487;28;20020;-69
2024/03/05 08:25:14;;;;;;;6.00;1.67;;;;;;;2.58;62.54;101639.50;5104110;28;20039;-69
2024/03/05 08:27:41;;;;;;;1.45;1.20;;;;;;;2.65;61.75;101637.22;5105358;28;20016;-68
2024/03/05 08:30:08;;;;;;;2.17;1.13;;;;;;;2.75;62.10;101631.66;5104124;28;20016;-68
2024/03/05 08:32:35;;;;;;;3.40;2.03;;;;;;;2.95;61.19;101639.34;5105213;28;20028;-70
2024/03/05 08:35:00;;;;;;;4.88;2.08;;;;;;;2.92;61.41;101635.00;5105223;28;20035;-69
2024/03/05 08:37:25;;;;;;;0.93;0.88;;;;;;;3.02;61.08;101641.38;5103918;28;20024;-70
2024/03/05 08:39:51;;;;;;;3.38;2.10;;;;;;;3.19;61.24;101642.09;5105036;28;20026;-68
2024/03/05 08:42:16;;;;;;;2.20;1.65;;;;;;;3.37;60.44;101668.47;5104968;28;20024;-70
2024/03/05 08:44:41;;;;;;;0.68;0.52;;;;;;;3.38;59.42;101637.72;5088502;28;20104;-69
2024/03/05 08:47:07;;;;;;;4.57;1.27;;;;;;;3.40;59.36;101655.75;5088716;28;20036;-69
2024/03/05 08:49:33;;;;;;;2.08;1.92;;;;;;;3.44;58.54;101643.13;5088762;28;20142;-69
2024/03/05 08:52:01;;;;;;;1.73;1.13;;;;;;;3.37;58.29;101651.34;5088526;28;20080;-68
2024/03/05 08:54:30;;;;;;;3.95;2.05;;;;;;;3.43;59.58;101664.47;5070484;28;20043;-68
2024/03/05 08:56:57;;;;;;;1.98;1.77;;;;;;;3.53;58.36;101658.00;5088500;28;20025;-70
2024/03/05 08:59:22;;;;;;;1.92;1.83;;;;;;;3.47;59.08;101643.25;5070448;28;20024;-68
2024/03/05 09:01:50;;;;;;;2.10;1.27;;;;;;;3.64;59.43;101635.34;5088343;28;20013;-70
2024/03/05 09:04:15;;;;;;;1.50;1.40;;;;;;;4.00;58.80;101643.53;5088559;28;20043;-69
2024/03/05 09:06:40;;;;;;;0.75;0.73;;;;;;;4.05;57.42;101653.22;5070225;28;20448;-69
2024/03/05 09:09:06;;;;;;;0.90;0.85;;;;;;;3.99;57.97;101657.22;5088483;28;20027;-69
2024/03/05 09:11:34;;;;;;;1.38;1.00;;;;;;;4.12;57.59;101674.00;5069969;28;20024;-70
2024/03/05 09:14:00;;;;;;;1.15;1.05;;;;;;;4.18;56.87;101652.00;5088425;28;20043;-69
2024/03/05 09:16:27;;;;;;;1.20;1.10;;;;;;;4.22;57.13;101646.13;5088168;28;20029;-69
2024/03/05 09:18:53;;;;;;;2.67;1.80;;;;;;;4.33;57.17;101643.06;5088123;28;20048;-70
2024/03/05 09:21:19;;;;;;;4.43;2.38;;;;;;;4.52;57.14;101660.06;5088235;28;20089;-70
2024/03/05 09:23:44;;;;;;;1.77;1.63;;;;;;;4.56;56.63;101641.38;5088076;28;20376;-69
2024/03/05 09:26:10;;;;;;;1.88;1.33;;;;;;;4.66;57.11;101640.03;5087882;28;20084;-69
2024/03/05 09:28:36;;;;;;;0.77;0.77;;;;;;;4.78;55.30;101652.44;5069854;28;20027;-69
2024/03/05 09:31:02;;;;;;;1.63;1.52;;;;;;;4.65;54.85;101660.53;5069969;28;20020;-71
2024/03/05 09:33:29;;;;;;;3.10;2.55;;;;;;;4.32;55.88;101661.91;5087996;28;20021;-69
2024/03/05 09:35:55;;;;;;;1.17;0.95;;;;;;;4.20;56.75;101688.88;5087877;28;20476;-69
2024/03/05 09:38:20;;;;;;;1.02;1.02;;;;;;;4.24;56.75;101668.44;5087989;28;20044;-71
2024/03/05 09:40:46;;;;;;;2.28;1.67;;;;;;;4.26;55.29;101677.97;5087979;28;20024;-69
2024/03/05 09:43:15;;;;;;;0.95;0.95;;;;;;;4.03;56.12;101679.63;5093826;28;20483;-68
2024/03/05 09:45:42;;;;;;;3.13;2.28;;;;;;;3.90;56.00;101694.59;5089533;28;20039;-69
2024/03/05 09:48:11;;;;;;;2.10;1.70;;;;;;;3.85;56.11;101675.53;5107901;28;20068;-70
2024/03/05 09:50:37;;;;;;;1.25;1.13;;;;;;;3.76;56.65;101668.34;5107696;28;20024;-69
2024/03/05 09:53:03;;;;;;;3.38;1.63;;;;;;;3.67;56.87;101668.88;5107818;28;20123;-69
2024/03/05 09:55:29;;;;;;;3.70;1.67;;;;;;;3.86;56.97;101681.56;5106970;28;20046;-70
2024/03/05 09:57:55;;;;;;;2.45;1.85;;;;;;;4.12;56.25;101669.72;5089306;28;20024;-71
2024/03/05 10:00:22;;;;;;;2.47;1.00;;;;;;;4.12;56.28;101668.88;5106854;28;20020;-68
2024/03/05 10:02:50;;;;;;;2.25;2.05;;;;;;;4.22;56.14;101658.09;5106465;28;20028;-67
2024/03/05 10:05:18;;;;;;;4.30;1.73;;;;;;;4.22;55.78;101646.13;5107580;28;20020;-69
2024/03/05 10:07:43;;;;;;;2.63;1.95;;;;;;;4.35;55.33;101662.00;5107562;28;20020;-68
2024/03/05 10:10:12;;;;;;;8.15;2.13;;;;;;;4.57;55.67;101665.38;5089181;28;20078;-69
2024/03/05 10:12:41;;;;;;;1.60;1.50;;;;;;;4.86;55.13;101655.28;5107458;28;20023;-69
2024/03/05 10:15:24;;;;;;;2.75;1.60;;;;;;;5.38;53.76;101639.00;5107509;28;20023;-68
2024/03/05 10:17:52;;;;;;;3.03;1.38;;;;;;;5.88;51.93;101656.88;5107488;28;20083;-69
2024/03/05 10:20:25;;;;;;;3.55;2.38;;;;;;;5.75;50.86;101665.09;5089201;28;20094;-69
2024/03/05 10:22:51;;;;;;;1.55;1.45;;;;;;;5.72;50.07;101677.88;5107197;28;20028;-70
2024/03/05 10:25:17;;;;;;;1.40;1.30;;;;;;;5.51;49.71;101676.34;5107267;28;20016;-69
2024/03/05 10:27:45;;;;;;;2.88;2.03;;;;;;;5.36;49.75;101662.13;5105651;28;20096;-68
2024/03/05 10:30:42;;;;;;;0.70;0.70;;;;;;;5.09;50.11;101662.94;5106982;28;20054;-68
2024/03/05 10:33:08;;;;;;;5.10;1.48;;;;;;;5.01;50.63;101672.97;5091024;28;20038;-69
2024/03/05 10:35:33;;;;;;;3.65;2.25;;;;;;;5.03;51.17;101678.16;5107012;28;20023;-67
2024/03/05 10:38:05;;;;;;;1.77;1.60;;;;;;;5.16;50.29;101680.34;5107063;28;20043;-70
2024/03/05 10:40:37;;;;;;;;;;;;;;;5.23;50.33;101677.97;5107394;28;20479;-71
2024/03/05 10:43:07;;;;;;;0.82;0.82;;;;;;;5.30;50.70;101667.91;5106577;28;19916;-70
2024/03/05 10:45:40;;;;;;;0.80;0.80;;;;;;;5.64;49.79;101672.47;5106917;28;20032;-70
2024/03/05 10:48:07;;;;;;;2.47;0.98;;;;;;;5.63;50.13;101676.72;5106700;28;20094;-68
2024/03/05 10:50:36;;;;;;;0.70;0.70;;;;;;;5.64;49.56;101681.06;5105483;28;20387;-68
2024/03/05 10:53:04;;;;;;;0.85;0.85;;;;;;;5.70;49.18;101664.94;5106813;28;20101;-68
2024/03/05 10:55:33;;;;;;;5.47;2.25;;;;;;;5.77;49.44;101678.88;5106664;28;20026;-68
2024/03/05 10:58:19;;;;;;;2.47;1.98;;;;;;;5.99;49.18;101683.00;5106539;28;20027;-69
2024/03/05 11:00:45;;;;;;;1.45;1.30;;;;;;;5.92;48.93;101678.50;5105386;28;20012;-67
2024/03/05 11:03:16;;;;;;;1.35;1.25;;;;;;;5.79;48.78;101672.97;5106450;28;20031;-68
2024/03/05 11:05:50;;;;;;;4.25;2.80;;;;;;;5.70;49.17;101711.31;5106347;28;20020;-68
2024/03/05 11:08:25;;;;;;;1.45;1.15;;;;;;;5.78;49.42;101660.88;5104107;28;20035;-69
2024/03/05 11:10:55;;;;;;;1.58;1.35;;;;;;;6.06;48.89;101712.47;5104972;28;20083;-68
2024/03/05 11:13:21;;;;;;;1.25;1.17;;;;;;;6.29;47.24;101682.22;5104970;28;20094;-69
2024/03/05 11:15:49;;;;;;;1.67;1.30;;;;;;;6.21;47.89;101694.03;5106345;28;20035;-70
2024/03/05 11:18:47;;;;;;;6.63;2.85;;;;;;;6.28;48.37;101677.00;5106162;28;20484;-68
2024/03/05 11:21:14;;;;;;;2.33;1.42;;;;;;;6.43;48.06;101692.09;5060887;28;20070;-68
2024/03/05 11:23:52;;;;;;;2.30;2.10;;;;;;;6.33;48.26;101654.81;5106187;28;20032;-68
2024/03/05 11:26:19;;;;;;;1.95;1.17;;;;;;;6.56;47.77;101729.44;5106092;28;20068;-69
2024/03/05 11:28:46;;;;;;;2.05;1.60;;;;;;;6.70;47.78;101662.75;5105833;28;20024;-69
2024/03/05 11:31:16;;;;;;;2.25;1.45;;;;;;;7.07;47.56;101666.34;5087693;28;20020;-69
2024/03/05 11:33:46;;;;;;;3.03;1.90;;;;;;;7.37;46.06;101674.84;5104665;28;20016;-69